Time;durP1;ratioP1;P1;durP2;ratioP2;P2;SDS_P1;SDS_P2;PMS_P1;PMS_P2;Temp;Humidity;BMP_temperature;BMP_pressure;BME280_temperature;BME280_humidity;BME280_pressure;Samples;Min_cycle;Max_cycle;Signal;HPM_P1;HPM_P2
2022/06/14 00:00:56;;;;;;;4.30;1.10;;;12.10;99.90;;;;;;6185343;23;20309;-90
2022/06/14 00:03:28;;;;;;;2.00;0.70;;;12.10;99.90;;;;;;6185386;23;20197;-90
2022/06/14 00:05:55;;;;;;;5.30;0.73;;;12.10;99.90;;;;;;6210102;23;20147;-90
2022/06/14 00:08:25;;;;;;;5.67;1.30;;;12.10;99.90;;;;;;6209699;23;20202;-91
2022/06/14 00:10:51;;;;;;;0.90;0.83;;;12.00;99.90;;;;;;6209941;23;20197;-91
2022/06/14 00:13:18;;;;;;;2.07;0.90;;;12.00;99.90;;;;;;6184824;23;20205;-91
2022/06/14 00:15:45;;;;;;;1.07;0.70;;;12.00;99.90;;;;;;6209817;23;20194;-91
2022/06/14 00:18:13;;;;;;;4.10;1.43;;;12.00;99.90;;;;;;6185343;23;21031;-90
2022/06/14 00:20:40;;;;;;;5.53;1.73;;;11.90;99.90;;;;;;6185920;23;20178;-91
2022/06/14 00:23:06;;;;;;;2.13;0.90;;;11.90;99.90;;;;;;6184041;23;20193;-91
2022/06/14 00:25:41;;;;;;;1.90;1.13;;;11.90;99.90;;;;;;6208628;23;20653;-91
2022/06/14 00:28:10;;;;;;;6.33;0.90;;;11.90;99.90;;;;;;6209213;23;20217;-91
2022/06/14 00:30:37;;;;;;;1.03;0.90;;;11.80;99.90;;;;;;6208442;23;20221;-92
2022/06/14 00:33:03;;;;;;;4.03;1.10;;;11.80;99.90;;;;;;6209208;23;20150;-90
2022/06/14 00:35:30;;;;;;;0.67;0.60;;;11.80;99.90;;;;;;6184401;23;20606;-90
2022/06/14 00:37:56;;;;;;;4.60;1.17;;;11.80;99.90;;;;;;6183827;23;20194;-91
2022/06/14 00:40:25;;;;;;;4.00;1.47;;;11.70;99.90;;;;;;6208226;23;20209;-92
2022/06/14 00:42:52;;;;;;;0.67;0.53;;;11.70;99.90;;;;;;6208243;23;20324;-91
2022/06/14 00:45:17;;;;;;;2.47;0.87;;;11.70;99.90;;;;;;6183912;23;20169;-91
2022/06/14 00:47:58;;;;;;;2.33;1.03;;;11.60;99.90;;;;;;6209138;23;20158;-91
2022/06/14 00:50:28;;;;;;;6.00;1.23;;;11.60;99.90;;;;;;6208355;23;20650;-94
2022/06/14 00:53:04;;;;;;;0.90;0.90;;;11.60;99.90;;;;;;6208326;23;20403;-92
2022/06/14 00:55:38;;;;;;;3.47;1.00;;;11.60;99.90;;;;;;6208533;23;20193;-92
2022/06/14 00:58:14;;;;;;;0.83;0.60;;;11.50;99.90;;;;;;6208499;23;20658;-92
2022/06/14 01:00:59;;;;;;;2.87;1.27;;;11.50;99.90;;;;;;6208725;23;20284;-92
2022/06/14 01:03:35;;;;;;;1.07;0.97;;;11.50;99.90;;;;;;6208287;23;20214;-92
2022/06/14 01:06:20;;;;;;;1.37;0.63;;;11.50;99.90;;;;;;6208870;23;20482;-91
2022/06/14 01:08:48;;;;;;;0.67;0.67;;;11.50;99.90;;;;;;6209267;23;20150;-90
2022/06/14 01:11:43;;;;;;;1.40;0.97;;;11.50;99.90;;;;;;6208131;23;20276;-90
2022/06/14 01:14:12;;;;;;;1.57;0.90;;;11.50;99.90;;;;;;6203916;23;20209;-92
2022/06/14 01:16:38;;;;;;;1.83;0.77;;;11.50;99.90;;;;;;6207964;23;20705;-91
2022/06/14 01:19:19;;;;;;;1.87;0.80;;;11.50;99.90;;;;;;6158455;23;20213;-90
2022/06/14 01:22:06;;;;;;;1.17;1.07;;;11.50;99.90;;;;;;6208652;23;20197;-90
2022/06/14 01:24:34;;;;;;;5.20;1.40;;;11.60;99.90;;;;;;6207890;23;20224;-91
2022/06/14 01:27:01;;;;;;;3.63;0.87;;;11.50;99.90;;;;;;6208958;23;20158;-91
2022/06/14 01:29:28;;;;;;;4.53;0.93;;;11.60;99.90;;;;;;6183093;23;20265;-91
2022/06/14 01:31:59;;;;;;;7.37;1.03;;;11.60;99.90;;;;;;6208259;23;20642;-91
2022/06/14 01:34:27;;;;;;;7.70;1.07;;;11.60;99.90;;;;;;6207894;23;20225;-92
2022/06/14 01:36:53;;;;;;;4.30;0.90;;;11.60;99.90;;;;;;6208012;23;20224;-92
2022/06/14 01:39:20;;;;;;;1.40;0.83;;;11.60;99.90;;;;;;6183153;23;20526;-91
2022/06/14 01:42:11;;;;;;;3.23;1.00;;;11.50;99.90;;;;;;6159715;23;20158;-92
2022/06/14 01:45:04;;;;;;;4.00;1.17;;;11.60;99.90;;;;;;6208395;23;20505;-91
2022/06/14 01:47:42;;;;;;;1.97;1.73;;;11.50;99.90;;;;;;6209774;23;20174;-91
2022/06/14 01:53:04;;;;;;;2.67;0.93;;;11.50;99.90;;;;;;6210384;23;20202;-89
2022/06/14 01:55:38;;;;;;;1.33;1.20;;;11.50;99.90;;;;;;6208576;23;20202;-90
2022/06/14 01:58:39;;;;;;;1.13;1.00;;;11.50;99.90;;;;;;6207940;23;20244;-92
2022/06/14 02:01:17;;;;;;;3.00;1.30;;;11.50;99.90;;;;;;6208024;23;20209;-91
2022/06/14 02:07:02;;;;;;;2.30;0.63;;;11.40;99.90;;;;;;6209324;23;20193;-91
2022/06/14 02:09:46;;;;;;;0.70;0.53;;;11.30;99.90;;;;;;6210189;23;20210;-90
2022/06/14 02:12:15;;;;;;;3.50;1.27;;;11.30;99.90;;;;;;6208881;23;20151;-89
2022/06/14 02:14:48;;;;;;;2.13;0.83;;;11.20;99.90;;;;;;6209339;23;20162;-90
2022/06/14 02:17:25;;;;;;;6.57;1.37;;;11.20;99.90;;;;;;6208347;23;20336;-92
2022/06/14 02:20:00;;;;;;;3.20;0.83;;;11.20;99.90;;;;;;6208024;23;20206;-91
2022/06/14 02:22:35;;;;;;;1.47;1.37;;;11.30;99.90;;;;;;6207843;23;20221;-92
2022/06/14 02:25:12;;;;;;;1.60;0.97;;;11.30;99.90;;;;;;6208604;23;20562;-89
2022/06/14 02:27:50;;;;;;;3.40;0.93;;;11.30;99.90;;;;;;6210185;23;20269;-89
2022/06/14 02:30:19;;;;;;;8.40;1.87;;;11.30;99.90;;;;;;6209847;23;20242;-91
2022/06/14 02:33:02;;;;;;;1.83;1.40;;;11.20;99.90;;;;;;6210299;23;20587;-91
2022/06/14 02:35:34;;;;;;;0.77;0.77;;;11.20;99.90;;;;;;6210391;23;20174;-89
2022/06/14 02:38:15;;;;;;;2.07;1.83;;;11.20;99.90;;;;;;6209815;23;20198;-91
2022/06/14 02:40:47;;;;;;;1.50;1.40;;;11.20;99.90;;;;;;6209346;23;20213;-91
2022/06/14 02:43:19;;;;;;;4.20;1.37;;;11.10;99.90;;;;;;6210339;23;20208;-89
2022/06/14 02:46:02;;;;;;;2.37;1.37;;;11.10;99.90;;;;;;6210237;23;20205;-89
2022/06/14 02:48:42;;;;;;;0.80;0.80;;;11.00;99.90;;;;;;6209308;23;20198;-91
2022/06/14 02:51:13;;;;;;;2.80;1.27;;;11.00;99.90;;;;;;6209280;23;20168;-92
2022/06/14 02:53:55;;;;;;;2.53;1.17;;;10.90;99.90;;;;;;6209661;23;20154;-93
2022/06/14 02:56:43;;;;;;;1.53;1.10;;;10.90;99.90;;;;;;6209566;23;20280;-92
2022/06/14 02:59:38;;;;;;;1.40;0.93;;;10.90;99.90;;;;;;6209271;23;20784;-92
2022/06/14 03:02:10;;;;;;;12.87;1.27;;;10.90;99.90;;;;;;6211003;23;20800;-92
2022/06/14 03:04:46;;;;;;;2.83;1.00;;;10.90;99.90;;;;;;6209653;23;20268;-92
2022/06/14 03:07:18;;;;;;;3.10;1.40;;;10.80;99.90;;;;;;6209599;23;20730;-92
2022/06/14 03:09:46;;;;;;;4.90;1.60;;;10.80;99.90;;;;;;6210773;23;20249;-91
2022/06/14 03:12:33;;;;;;;10.20;1.00;;;10.80;99.90;;;;;;6210880;23;20180;-90
2022/06/14 03:15:28;;;;;;;3.63;2.23;;;10.80;99.90;;;;;;6210353;23;20208;-92
2022/06/14 03:18:00;;;;;;;2.27;1.47;;;10.80;99.90;;;;;;6209614;23;20209;-92
2022/06/14 03:20:40;;;;;;;2.23;1.00;;;10.80;99.90;;;;;;6209465;23;20205;-93
2022/06/14 03:23:12;;;;;;;1.33;1.23;;;10.90;99.90;;;;;;6209248;23;20528;-93
2022/06/14 03:25:51;;;;;;;0.80;0.80;;;10.90;99.90;;;;;;6209208;23;20193;-93
2022/06/14 03:28:27;;;;;;;1.63;1.23;;;10.90;99.90;;;;;;6209783;23;20531;-92
2022/06/14 03:30:59;;;;;;;1.90;0.80;;;10.90;99.90;;;;;;6209720;23;20276;-93
2022/06/14 03:34:00;;;;;;;2.17;0.90;;;10.90;99.90;;;;;;6209232;23;20194;-92
2022/06/14 03:36:27;;;;;;;2.70;1.50;;;10.90;99.90;;;;;;6202135;23;20190;-92
2022/06/14 03:39:02;;;;;;;1.63;0.83;;;10.90;99.90;;;;;;6210135;23;20154;-91
2022/06/14 03:41:32;;;;;;;2.00;1.63;;;11.00;99.90;;;;;;6209500;23;20174;-92
2022/06/14 03:44:00;;;;;;;6.17;1.90;;;11.00;99.90;;;;;;6209281;23;20957;-92
2022/06/14 03:46:31;;;;;;;2.53;1.40;;;11.10;99.90;;;;;;6208671;23;20194;-92
2022/06/14 03:49:14;;;;;;;3.27;1.47;;;11.10;99.90;;;;;;6209128;23;20201;-92
2022/06/14 03:52:04;;;;;;;2.30;1.40;;;11.10;99.90;;;;;;6209023;23;20592;-92
2022/06/14 03:55:04;;;;;;;3.10;1.07;;;11.20;99.90;;;;;;6208748;23;20221;-92
2022/06/14 03:57:30;;;;;;;1.40;1.23;;;11.30;99.90;;;;;;6160778;23;20272;-92
2022/06/14 04:00:25;;;;;;;3.13;1.33;;;11.30;99.90;;;;;;6209804;23;20202;-90
2022/06/14 04:03:15;;;;;;;1.67;1.27;;;11.40;99.90;;;;;;6209524;23;20186;-92
2022/06/14 04:06:25;;;;;;;3.57;1.40;;;11.50;99.90;;;;;;6208938;23;20249;-91
2022/06/14 04:08:57;;;;;;;3.17;1.70;;;11.60;99.90;;;;;;6209227;23;20626;-91
2022/06/14 04:11:41;;;;;;;3.13;1.97;;;11.70;99.90;;;;;;6208661;23;20190;-91
2022/06/14 04:14:12;;;;;;;4.00;1.87;;;11.80;99.90;;;;;;6209025;23;20340;-90
2022/06/14 04:16:56;;;;;;;1.70;1.23;;;11.80;99.90;;;;;;6209004;23;20228;-92
2022/06/14 04:19:49;;;;;;;2.03;1.43;;;12.00;99.90;;;;;;6209661;23;20244;-91
2022/06/14 04:22:25;;;;;;;3.00;1.43;;;12.10;99.90;;;;;;6209190;23;20228;-88
2022/06/14 04:25:19;;;;;;;1.83;1.63;;;12.30;99.90;;;;;;6209624;23;20197;-88
2022/06/14 04:27:57;;;;;;;2.33;1.70;;;12.40;99.90;;;;;;6208618;23;20204;-91
2022/06/14 04:30:38;;;;;;;2.63;2.27;;;12.30;99.90;;;;;;6210520;23;20276;-89
2022/06/14 04:33:27;;;;;;;2.50;1.60;;;12.40;99.90;;;;;;6209584;23;20138;-91
2022/06/14 04:36:02;;;;;;;1.70;1.13;;;12.40;99.90;;;;;;6209743;23;20138;-91
2022/06/14 04:38:43;;;;;;;4.40;2.47;;;12.50;99.90;;;;;;6208503;23;20181;-91
2022/06/14 04:41:19;;;;;;;1.03;0.83;;;12.60;99.90;;;;;;6208458;23;20288;-91
2022/06/14 04:43:48;;;;;;;1.50;1.40;;;12.60;99.90;;;;;;6208336;23;20212;-91
2022/06/14 04:46:19;;;;;;;1.43;1.30;;;12.80;99.90;;;;;;6208439;23;20252;-91
2022/06/14 04:48:57;;;;;;;3.00;1.90;;;12.90;99.90;;;;;;6208533;23;20202;-90
2022/06/14 04:51:40;;;;;;;5.17;2.07;;;13.00;99.90;;;;;;6208638;23;21167;-91
2022/06/14 04:54:12;;;;;;;2.37;2.03;;;13.30;99.90;;;;;;6208461;23;20154;-89
2022/06/14 04:57:02;;;;;;;3.97;1.97;;;13.50;99.90;;;;;;6209372;23;20546;-89
2022/06/14 04:59:42;;;;;;;3.20;1.40;;;13.70;99.90;;;;;;6208000;23;20214;-89
2022/06/14 05:02:21;;;;;;;1.73;1.60;;;13.90;99.90;;;;;;6208514;23;20708;-89
2022/06/14 05:04:55;;;;;;;5.33;0.97;;;14.10;99.90;;;;;;6208616;23;20219;-89
2022/06/14 05:07:33;;;;;;;2.77;1.40;;;14.40;99.90;;;;;;6208242;23;20199;-91
2022/06/14 05:10:05;;;;;;;5.20;1.67;;;14.70;99.90;;;;;;6208813;23;20201;-89
2022/06/14 05:12:45;;;;;;;3.13;1.50;;;15.00;99.90;;;;;;6208677;23;20190;-88
2022/06/14 05:15:40;;;;;;;1.80;1.70;;;15.20;99.90;;;;;;6208945;23;20150;-88
2022/06/14 05:18:18;;;;;;;1.20;1.10;;;15.50;99.90;;;;;;6209074;23;20158;-88
2022/06/14 05:21:20;;;;;;;2.33;1.50;;;16.10;99.90;;;;;;6209777;23;20532;-90
2022/06/14 05:23:50;;;;;;;4.20;1.17;;;17.10;99.90;;;;;;6209481;23;20670;-90
2022/06/14 05:26:30;;;;;;;1.93;1.30;;;17.70;99.90;;;;;;6208618;23;20248;-90
2022/06/14 05:29:18;;;;;;;1.90;1.50;;;18.30;99.90;;;;;;6208820;23;20206;-90
2022/06/14 05:32:08;;;;;;;2.77;1.53;;;19.20;99.90;;;;;;6208835;23;20204;-91
2022/06/14 05:34:59;;;;;;;2.13;1.37;;;21.90;99.90;;;;;;6208539;23;20213;-90
2022/06/14 05:37:34;;;;;;;3.00;1.90;;;25.10;99.90;;;;;;6209209;23;20260;-90
2022/06/14 05:40:13;;;;;;;1.23;1.13;;;27.00;99.90;;;;;;6208542;23;20212;-90
2022/06/14 05:42:47;;;;;;;2.40;1.20;;;28.20;99.90;;;;;;6208135;23;20617;-90
2022/06/14 05:45:18;;;;;;;1.40;1.30;;;29.30;99.90;;;;;;6207924;23;20230;-88
2022/06/14 05:47:53;;;;;;;3.37;1.83;;;29.40;99.90;;;;;;6208932;23;20139;-88
2022/06/14 05:50:25;;;;;;;2.97;1.77;;;30.40;99.20;;;;;;6207801;23;20205;-88
2022/06/14 05:53:07;;;;;;;2.60;1.53;;;29.90;98.70;;;;;;6207810;23;20506;-88
2022/06/14 05:55:38;;;;;;;2.73;1.40;;;29.50;98.70;;;;;;6207692;23;20198;-88
2022/06/14 05:58:16;;;;;;;2.25;1.15;;;30.20;96.60;;;;;;6207985;23;20244;-89
2022/06/14 06:00:47;;;;;;;3.50;1.10;;;29.70;98.10;;;;;;6209146;23;20232;-89
2022/06/14 06:03:38;;;;;;;1.38;1.20;;;30.30;97.10;;;;;;6209791;23;20209;-90
2022/06/14 06:06:06;;;;;;;2.33;1.50;;;28.70;97.60;;;;;;6210572;23;20172;-91
2022/06/14 06:08:40;;;;;;;3.92;1.50;;;25.60;99.90;;;;;;6212192;23;20150;-90
2022/06/14 06:11:52;;;;;;;4.85;1.05;;;22.60;99.90;;;;;;6209696;23;20201;-91
2022/06/14 06:14:28;;;;;;;3.20;1.50;;;21.30;99.90;;;;;;6205597;23;20197;-90
2022/06/14 06:17:06;;;;;;;2.75;1.10;;;23.20;99.90;;;;;;6210590;23;20197;-91
2022/06/14 06:19:53;;;;;;;2.75;1.40;;;26.00;99.90;;;;;;6210342;23;20244;-91
2022/06/14 06:22:22;;;;;;;1.90;1.15;;;29.00;99.90;;;;;;6210274;23;20198;-90
2022/06/14 06:24:57;;;;;;;4.25;1.17;;;29.10;98.80;;;;;;6210035;23;20287;-90
2022/06/14 06:27:32;;;;;;;1.40;1.02;;;28.90;95.90;;;;;;6210205;23;20645;-90
2022/06/14 06:30:17;;;;;;;2.67;1.48;;;28.60;97.10;;;;;;6210709;23;20146;-91
2022/06/14 06:32:44;;;;;;;2.17;1.10;;;29.60;96.20;;;;;;6210167;23;20178;-90
2022/06/14 06:35:12;;;;;;;2.28;1.10;;;29.10;95.80;;;;;;6210036;23;20542;-89
2022/06/14 06:37:41;;;;;;;1.15;0.98;;;29.20;95.00;;;;;;6184772;23;20198;-88
2022/06/14 06:40:12;;;;;;;1.80;1.17;;;30.00;95.70;;;;;;6209777;23;20202;-90
2022/06/14 06:42:58;;;;;;;2.53;1.13;;;29.70;94.40;;;;;;6209811;23;20565;-87
2022/06/14 06:45:34;;;;;;;2.30;1.23;;;26.50;96.20;;;;;;6209629;23;20575;-88
2022/06/14 06:48:08;;;;;;;2.55;0.98;;;25.20;99.90;;;;;;6211474;23;20138;-88
2022/06/14 06:50:48;;;;;;;1.95;1.10;;;25.20;99.90;;;;;;6210540;23;20880;-89
2022/06/14 06:53:17;;;;;;;2.00;1.00;;;25.50;99.90;;;;;;6209218;23;20544;-90
2022/06/14 06:55:59;;;;;;;7.95;1.33;;;25.90;98.20;;;;;;6209622;23;20643;-89
2022/06/14 06:58:38;;;;;;;3.30;1.60;;;25.00;99.90;;;;;;6209634;23;20679;-88
2022/06/14 07:01:14;;;;;;;2.95;1.00;;;24.90;99.90;;;;;;6209356;23;20281;-89
2022/06/14 07:03:48;;;;;;;2.97;1.10;;;24.80;99.90;;;;;;6209369;23;20220;-90
2022/06/14 07:06:36;;;;;;;4.50;1.30;;;24.20;99.90;;;;;;6210762;23;20150;-90
2022/06/14 07:09:04;;;;;;;1.98;1.33;;;23.20;99.90;;;;;;6183860;23;20494;-89
2022/06/14 07:12:03;;;;;;;1.17;1.08;;;22.20;99.90;;;;;;6209915;23;20158;-90
2022/06/14 07:14:31;;;;;;;5.18;1.23;;;23.30;99.90;;;;;;6209969;23;20476;-88
2022/06/14 07:17:33;;;;;;;1.15;1.13;;;23.80;99.90;;;;;;6209168;23;20190;-89
2022/06/14 07:20:05;;;;;;;2.83;1.38;;;23.30;99.90;;;;;;6132220;23;20206;-89
2022/06/14 07:22:46;;;;;;;1.25;1.00;;;24.60;99.90;;;;;;6209173;23;20202;-89
2022/06/14 07:25:14;;;;;;;1.27;0.90;;;25.40;99.90;;;;;;6209250;23;20202;-89
2022/06/14 07:27:51;;;;;;;2.67;1.27;;;26.50;99.90;;;;;;6208719;23;20205;-90
2022/06/14 07:30:25;;;;;;;1.88;1.30;;;25.20;99.90;;;;;;6209427;23;20516;-89
2022/06/14 07:32:55;;;;;;;3.50;1.38;;;23.40;99.90;;;;;;6209450;23;20199;-89
2022/06/14 07:35:30;;;;;;;5.85;1.67;;;23.10;99.90;;;;;;6208704;23;20197;-89
2022/06/14 07:38:24;;;;;;;2.78;1.33;;;22.50;99.90;;;;;;6208816;23;20205;-88
2022/06/14 07:41:00;;;;;;;3.75;1.42;;;21.80;99.90;;;;;;6208979;23;20536;-90
2022/06/14 07:43:50;;;;;;;1.10;1.10;;;21.10;99.90;;;;;;6208880;23;20201;-90
2022/06/14 07:46:29;;;;;;;1.65;0.98;;;21.00;99.90;;;;;;6210394;23;20689;-89
2022/06/14 07:49:06;;;;;;;3.87;1.30;;;21.00;99.90;;;;;;6208798;23;20343;-89
2022/06/14 07:51:39;;;;;;;2.63;1.30;;;20.50;99.90;;;;;;6209466;23;20194;-88
2022/06/14 07:54:21;;;;;;;1.97;1.13;;;20.40;99.90;;;;;;6209056;23;20143;-89
2022/06/14 07:57:14;;;;;;;2.20;1.20;;;20.40;99.90;;;;;;6209681;23;20166;-87
2022/06/14 07:59:53;;;;;;;3.37;1.53;;;20.90;99.90;;;;;;6207940;23;20209;-89
2022/06/14 08:02:46;;;;;;;1.33;1.23;;;20.90;99.90;;;;;;6208723;23;21090;-90
2022/06/14 08:05:19;;;;;;;6.17;1.77;;;21.60;99.90;;;;;;6203729;23;20194;-89
2022/06/14 08:07:47;;;;;;;1.10;1.00;;;21.20;99.90;;;;;;6208736;23;20193;-89
2022/06/14 08:10:28;;;;;;;1.70;1.50;;;21.20;99.90;;;;;;6209009;23;20537;-90
2022/06/14 08:13:00;;;;;;;1.50;1.40;;;21.30;99.90;;;;;;6208967;23;20581;-90
2022/06/14 08:15:34;;;;;;;3.50;0.97;;;20.40;99.90;;;;;;6208930;23;20204;-89
2022/06/14 08:18:11;;;;;;;1.20;1.13;;;20.80;99.90;;;;;;6209970;23;20146;-88
2022/06/14 08:20:43;;;;;;;1.47;1.10;;;21.30;99.90;;;;;;6209085;23;20193;-89
2022/06/14 08:23:28;;;;;;;1.27;1.00;;;20.60;99.90;;;;;;6208227;23;20194;-88
2022/06/14 08:26:00;;;;;;;1.73;1.03;;;20.90;99.90;;;;;;6208493;23;20229;-89
2022/06/14 08:28:36;;;;;;;2.37;1.00;;;20.50;99.90;;;;;;6209249;23;20530;-88
2022/06/14 08:31:23;;;;;;;2.63;1.30;;;20.60;99.90;;;;;;6208756;23;20659;-87
2022/06/14 08:34:01;;;;;;;0.93;0.83;;;21.40;99.90;;;;;;6208538;23;20718;-88
2022/06/14 08:36:56;;;;;;;1.20;1.03;;;21.30;99.90;;;;;;6208918;23;20193;-89
2022/06/14 08:39:41;;;;;;;3.60;1.30;;;21.00;99.90;;;;;;6208535;23;20488;-89
2022/06/14 08:42:32;;;;;;;2.23;1.50;;;21.40;99.90;;;;;;6208686;23;20546;-88
2022/06/14 08:45:05;;;;;;;0.90;0.90;;;21.20;99.90;;;;;;6209124;23;20172;-87
2022/06/14 08:48:00;;;;;;;1.60;1.40;;;21.10;99.90;;;;;;6208940;23;20253;-89
2022/06/14 08:50:51;;;;;;;1.13;0.80;;;21.30;99.90;;;;;;6208848;23;20178;-88
2022/06/14 08:53:46;;;;;;;6.90;1.50;;;21.30;99.90;;;;;;6208307;23;20278;-89
2022/06/14 08:56:30;;;;;;;2.47;1.37;;;21.60;99.90;;;;;;6208475;23;20197;-89
2022/06/14 08:59:18;;;;;;;1.47;0.90;;;22.50;99.90;;;;;;6208123;23;20237;-87
2022/06/14 09:02:00;;;;;;;1.93;1.10;;;22.30;99.90;;;;;;6207857;23;20213;-91
2022/06/14 09:04:59;;;;;;;2.97;1.00;;;21.90;99.90;;;;;;6208699;23;20292;-91
2022/06/14 09:07:51;;;;;;;1.87;1.10;;;22.80;99.90;;;;;;6208798;23;20267;-91
2022/06/14 09:10:43;;;;;;;3.03;1.20;;;23.20;99.90;;;;;;6208718;23;20202;-91
2022/06/14 09:13:26;;;;;;;2.58;1.17;;;25.50;99.90;;;;;;6202164;23;20208;-92
2022/06/14 09:16:53;;;;;;;2.47;1.35;;;26.90;99.90;;;;;;6209096;23;20194;-91
2022/06/14 09:19:27;;;;;;;1.35;1.20;;;28.10;98.20;;;;;;6065024;23;20231;-90
2022/06/14 09:21:59;;;;;;;1.40;1.02;;;27.20;98.00;;;;;;6088468;23;20204;-91
2022/06/14 09:25:00;;;;;;;1.70;1.10;;;26.50;99.20;;;;;;6142985;23;20198;-91
2022/06/14 09:27:54;;;;;;;1.17;1.00;;;26.30;98.60;;;;;;6209228;23;20525;-92
2022/06/14 09:30:29;;;;;;;3.75;1.25;;;26.30;99.90;;;;;;6206228;23;20161;-89
2022/06/14 09:33:23;;;;;;;5.95;1.20;;;26.60;99.90;;;;;;6209490;23;20169;-91
2022/06/14 09:36:24;;;;;;;4.28;1.30;;;27.70;99.80;;;;;;6209644;23;20185;-88
2022/06/14 09:39:18;;;;;;;1.67;1.20;;;26.40;98.20;;;;;;6149730;23;20196;-89
2022/06/14 09:42:14;;;;;;;1.00;0.80;;;24.90;99.90;;;;;;6210328;23;20178;-88
2022/06/14 09:45:25;;;;;;;2.08;1.10;;;25.30;99.90;;;;;;6209768;23;20182;-88
2022/06/14 09:48:15;;;;;;;1.40;1.13;;;27.10;99.90;;;;;;6163978;23;20193;-88
2022/06/14 09:50:50;;;;;;;1.13;1.02;;;25.40;99.30;;;;;;6209294;23;20181;-87
2022/06/14 09:53:43;;;;;;;1.38;1.17;;;23.80;99.90;;;;;;6209352;23;20701;-87
2022/06/14 09:56:22;;;;;;;1.70;1.30;;;24.80;99.90;;;;;;6209268;23;20201;-88
2022/06/14 09:58:57;;;;;;;3.22;1.30;;;25.00;99.90;;;;;;6209043;23;20217;-87
2022/06/14 10:01:47;;;;;;;1.40;1.30;;;25.00;99.90;;;;;;6209384;23;20244;-87
2022/06/14 10:04:31;;;;;;;1.52;1.30;;;24.20;99.90;;;;;;6209739;23;20201;-87
2022/06/14 10:07:15;;;;;;;4.07;1.20;;;23.70;99.90;;;;;;6209106;23;20209;-87
2022/06/14 10:09:47;;;;;;;4.28;1.60;;;23.30;99.90;;;;;;6209224;23;20719;-86
2022/06/14 10:12:37;;;;;;;1.27;1.08;;;22.80;99.90;;;;;;6209255;23;20147;-89
2022/06/14 10:15:20;;;;;;;4.35;1.23;;;22.10;99.90;;;;;;6210000;23;20145;-89
2022/06/14 10:18:07;;;;;;;3.17;1.38;;;21.40;99.90;;;;;;6209984;23;20142;-88
2022/06/14 10:20:42;;;;;;;2.40;1.20;;;20.80;99.90;;;;;;6209524;23;20194;-89
2022/06/14 10:23:29;;;;;;;3.28;1.30;;;21.80;99.90;;;;;;6209288;23;20584;-88
2022/06/14 10:29:40;;;;;;;1.65;1.25;;;21.90;99.90;;;;;;6193051;23;20198;-90
2022/06/14 10:32:18;;;;;;;2.55;1.10;;;21.90;99.90;;;;;;6209072;23;20291;-88
2022/06/14 10:34:56;;;;;;;3.47;1.30;;;22.20;99.90;;;;;;6209955;23;20201;-89
2022/06/14 10:37:40;;;;;;;2.37;1.80;;;22.20;99.90;;;;;;6209753;23;20194;-88
2022/06/14 10:40:33;;;;;;;1.27;1.17;;;21.90;99.90;;;;;;6209943;23;20209;-88
2022/06/14 10:43:18;;;;;;;3.10;1.47;;;21.80;99.90;;;;;;6209545;23;20276;-89
2022/06/14 10:45:54;;;;;;;1.67;1.13;;;21.40;99.90;;;;;;6209710;23;20567;-88
2022/06/14 10:48:47;;;;;;;2.78;1.52;;;20.60;99.90;;;;;;6209580;23;20182;-90
2022/06/14 10:51:21;;;;;;;1.90;1.03;;;21.30;99.90;;;;;;6210462;23;20576;-90
2022/06/14 10:54:16;;;;;;;1.10;1.00;;;21.90;99.90;;;;;;6210745;23;20146;-89
2022/06/14 10:56:56;;;;;;;3.87;1.27;;;21.70;99.90;;;;;;6210122;23;20178;-89
2022/06/14 10:59:55;;;;;;;3.10;1.50;;;21.20;99.90;;;;;;6210412;23;20209;-89
2022/06/14 11:02:42;;;;;;;3.20;1.53;;;21.50;99.90;;;;;;6209200;23;20260;-89
2022/06/14 11:05:14;;;;;;;4.93;1.83;;;22.00;99.90;;;;;;6208960;23;20642;-89
2022/06/14 11:08:04;;;;;;;3.23;1.27;;;21.80;99.90;;;;;;6209176;23;20194;-91
2022/06/14 11:10:50;;;;;;;3.03;1.27;;;22.50;99.90;;;;;;6209125;23;20201;-91
2022/06/14 11:13:21;;;;;;;2.23;1.10;;;22.10;99.90;;;;;;6209038;23;20214;-92
2022/06/14 11:16:16;;;;;;;1.40;1.30;;;22.10;99.90;;;;;;6208826;23;20252;-90
2022/06/14 11:18:54;;;;;;;1.60;1.43;;;21.20;99.90;;;;;;6189622;23;20205;-91
2022/06/14 11:21:28;;;;;;;1.37;1.27;;;20.70;99.90;;;;;;6209537;23;20197;-91
2022/06/14 11:24:09;;;;;;;1.47;1.30;;;20.60;99.90;;;;;;6209680;23;20150;-91
2022/06/14 11:26:48;;;;;;;2.80;1.07;;;20.50;99.90;;;;;;6209856;23;20192;-91
2022/06/14 11:29:28;;;;;;;2.80;1.47;;;20.50;99.90;;;;;;6208967;23;20189;-91
2022/06/14 11:32:13;;;;;;;1.47;1.27;;;20.50;99.90;;;;;;6209331;23;20206;-92
2022/06/14 11:34:53;;;;;;;1.57;1.30;;;20.80;99.90;;;;;;6209240;23;20201;-91
2022/06/14 11:37:48;;;;;;;2.87;1.30;;;21.20;99.90;;;;;;6209436;23;20974;-90
2022/06/14 11:40:23;;;;;;;3.00;2.10;;;21.00;99.90;;;;;;6155446;23;20241;-90
2022/06/14 11:43:07;;;;;;;1.97;1.77;;;21.30;99.90;;;;;;6208818;23;20256;-91
2022/06/14 11:45:46;;;;;;;1.63;1.53;;;21.40;99.90;;;;;;6208905;23;20193;-90
2022/06/14 11:48:42;;;;;;;1.73;1.17;;;21.20;99.90;;;;;;6209163;23;20145;-91
2022/06/14 11:51:32;;;;;;;1.40;1.30;;;21.20;99.90;;;;;;6208820;23;20150;-91
2022/06/14 11:54:16;;;;;;;3.43;1.93;;;21.00;99.90;;;;;;6209744;23;20165;-89
2022/06/14 11:57:20;;;;;;;2.77;1.50;;;21.50;99.90;;;;;;6209515;23;20174;-88
2022/06/14 12:00:23;;;;;;;4.00;1.77;;;21.10;99.90;;;;;;6208719;23;21167;-89
2022/06/14 12:02:55;;;;;;;3.10;1.57;;;21.80;99.90;;;;;;6204049;23;20252;-89
2022/06/14 12:05:48;;;;;;;1.67;1.23;;;22.00;99.90;;;;;;6208762;23;20578;-89
2022/06/14 12:08:56;;;;;;;2.63;1.63;;;22.00;99.90;;;;;;6208988;23;20550;-89
2022/06/14 12:11:34;;;;;;;3.67;1.20;;;22.50;99.90;;;;;;6208421;23;20202;-89
2022/06/14 12:14:22;;;;;;;4.20;1.37;;;21.70;99.90;;;;;;6208552;23;20198;-88
2022/06/14 12:17:01;;;;;;;3.83;1.63;;;21.10;99.90;;;;;;6208662;23;20646;-90
2022/06/14 12:19:33;;;;;;;1.47;1.00;;;21.00;99.90;;;;;;6208658;23;20244;-89
2022/06/14 12:22:34;;;;;;;2.90;1.37;;;20.70;99.90;;;;;;6208579;23;20213;-89
2022/06/14 12:28:39;;;;;;;1.83;1.00;;;21.80;99.90;;;;;;6209209;23;20201;-89
2022/06/14 12:31:18;;;;;;;1.40;1.30;;;22.00;99.90;;;;;;6208252;23;20233;-89
2022/06/14 12:33:50;;;;;;;3.03;1.60;;;22.10;99.90;;;;;;6208703;23;20216;-90
2022/06/14 12:36:40;;;;;;;1.90;1.40;;;22.50;99.90;;;;;;6208674;23;20686;-88
2022/06/14 12:39:13;;;;;;;1.80;1.70;;;22.60;99.90;;;;;;6208815;23;20138;-88
2022/06/14 12:41:45;;;;;;;3.23;1.70;;;21.90;99.90;;;;;;6209532;23;20170;-89
2022/06/14 12:44:20;;;;;;;2.23;1.60;;;21.50;99.90;;;;;;6208527;23;20198;-90
2022/06/14 12:46:49;;;;;;;1.57;1.47;;;21.40;99.90;;;;;;6208811;23;20202;-90
2022/06/14 12:49:33;;;;;;;3.37;1.60;;;21.40;99.90;;;;;;6209084;23;20565;-88
2022/06/14 12:52:11;;;;;;;2.33;1.40;;;21.10;99.90;;;;;;6208204;23;20272;-90
2022/06/14 12:54:49;;;;;;;2.60;1.50;;;21.30;99.90;;;;;;6208709;23;20661;-89
2022/06/14 12:57:47;;;;;;;1.77;1.60;;;21.10;99.90;;;;;;6208365;23;20571;-89
2022/06/14 13:00:42;;;;;;;1.50;1.40;;;20.60;99.90;;;;;;6208546;23;20892;-90
2022/06/14 13:03:16;;;;;;;1.70;1.40;;;20.40;99.90;;;;;;6208552;23;20177;-88
2022/06/14 13:05:46;;;;;;;2.70;1.30;;;20.50;99.90;;;;;;6209216;23;20659;-89
2022/06/14 13:08:31;;;;;;;1.43;1.10;;;20.00;99.90;;;;;;6208103;23;20260;-87
2022/06/14 13:11:19;;;;;;;3.73;1.60;;;20.40;99.90;;;;;;6208106;23;20241;-89
2022/06/14 13:14:06;;;;;;;1.70;1.60;;;21.30;99.90;;;;;;6208342;23;20731;-89
2022/06/14 13:16:50;;;;;;;1.70;1.47;;;21.20;99.90;;;;;;6207948;23;20542;-87
2022/06/14 13:19:38;;;;;;;1.60;1.50;;;21.20;99.90;;;;;;6209799;23;20206;-89
2022/06/14 13:22:13;;;;;;;2.33;1.67;;;21.10;99.90;;;;;;6208008;23;20220;-89
2022/06/14 13:25:22;;;;;;;2.17;1.50;;;21.40;99.90;;;;;;6208429;23;20197;-89
2022/06/14 13:28:01;;;;;;;1.80;1.70;;;21.20;99.90;;;;;;6207793;23;20197;-88
2022/06/14 13:31:02;;;;;;;1.93;1.47;;;21.20;99.90;;;;;;6208700;23;20200;-89
2022/06/14 13:34:01;;;;;;;2.63;1.80;;;21.40;99.90;;;;;;6208210;23;20201;-89
2022/06/14 13:36:55;;;;;;;3.27;1.80;;;21.70;99.90;;;;;;6208432;23;20243;-89
2022/06/14 13:39:33;;;;;;;1.97;1.40;;;21.00;99.90;;;;;;6208787;23;20204;-91
2022/06/14 13:42:08;;;;;;;2.97;1.73;;;20.50;99.90;;;;;;6209173;23;20146;-87
2022/06/14 13:44:37;;;;;;;3.33;2.00;;;20.40;99.90;;;;;;6209763;23;20587;-89
2022/06/14 13:47:12;;;;;;;1.40;1.40;;;20.60;99.90;;;;;;6209479;23;20208;-90
2022/06/14 13:49:44;;;;;;;1.97;1.53;;;20.90;99.90;;;;;;6208906;23;20296;-91
2022/06/14 13:52:23;;;;;;;3.43;1.53;;;20.80;99.90;;;;;;6208009;23;20198;-89
2022/06/14 13:55:13;;;;;;;2.37;1.37;;;21.10;99.90;;;;;;6207982;23;20964;-89
2022/06/14 13:57:47;;;;;;;2.47;1.40;;;21.10;99.90;;;;;;6208057;23;20214;-87
2022/06/14 14:00:32;;;;;;;2.70;1.83;;;21.20;99.90;;;;;;6208097;23;20219;-89
2022/06/14 14:03:18;;;;;;;2.50;1.13;;;21.20;99.90;;;;;;6208199;23;20200;-89
2022/06/14 14:06:00;;;;;;;2.50;1.27;;;21.00;99.90;;;;;;6133482;23;20190;-89
2022/06/14 14:08:41;;;;;;;1.93;1.63;;;20.90;99.90;;;;;;6207490;23;20277;-88